sensor_id;sensor_type;location;lat;lon;timestamp;P1;durP1;ratioP1;P2;durP2;ratioP2
10416;SDS011;62605;49.432;8.680;2023-02-01T00:00:25;1.40;;;1.30;;
10416;SDS011;62605;49.432;8.680;2023-02-01T00:02:52;3.43;;;1.70;;
10416;SDS011;62605;49.432;8.680;2023-02-01T00:05:19;2.53;;;1.60;;
10416;SDS011;62605;49.432;8.680;2023-02-01T00:07:46;3.17;;;1.40;;
10416;SDS011;62605;49.432;8.680;2023-02-01T00:10:15;1.40;;;1.03;;
10416;SDS011;62605;49.432;8.680;2023-02-01T00:12:43;1.47;;;1.37;;
10416;SDS011;62605;49.432;8.680;2023-02-01T00:15:10;3.53;;;1.43;;
10416;SDS011;62605;49.432;8.680;2023-02-01T00:17:37;1.67;;;1.57;;
10416;SDS011;62605;49.432;8.680;2023-02-01T00:20:05;2.40;;;1.70;;
10416;SDS011;62605;49.432;8.680;2023-02-01T00:22:33;3.70;;;1.70;;
10416;SDS011;62605;49.432;8.680;2023-02-01T00:25:00;2.77;;;1.83;;
10416;SDS011;62605;49.432;8.680;2023-02-01T00:27:28;1.70;;;1.60;;
10416;SDS011;62605;49.432;8.680;2023-02-01T00:29:56;2.00;;;1.80;;
10416;SDS011;62605;49.432;8.680;2023-02-01T00:32:22;2.23;;;1.70;;
10416;SDS011;62605;49.432;8.680;2023-02-01T00:34:50;2.07;;;1.87;;
10416;SDS011;62605;49.432;8.680;2023-02-01T00:37:17;2.93;;;1.83;;
10416;SDS011;62605;49.432;8.680;2023-02-01T00:39:44;2.90;;;1.70;;
10416;SDS011;62605;49.432;8.680;2023-02-01T00:42:11;2.13;;;1.80;;
10416;SDS011;62605;49.432;8.680;2023-02-01T00:44:39;3.23;;;1.50;;
10416;SDS011;62605;49.432;8.680;2023-02-01T00:47:06;1.73;;;1.50;;
10416;SDS011;62605;49.432;8.680;2023-02-01T00:49:33;1.87;;;1.70;;
10416;SDS011;62605;49.432;8.680;2023-02-01T00:52:00;2.07;;;1.40;;
10416;SDS011;62605;49.432;8.680;2023-02-01T00:54:27;1.90;;;1.70;;
10416;SDS011;62605;49.432;8.680;2023-02-01T00:56:54;2.20;;;1.60;;
10416;SDS011;62605;49.432;8.680;2023-02-01T00:59:21;1.87;;;1.27;;
10416;SDS011;62605;49.432;8.680;2023-02-01T01:01:49;1.57;;;1.37;;
10416;SDS011;62605;49.432;8.680;2023-02-01T01:04:16;2.60;;;1.80;;
10416;SDS011;62605;49.432;8.680;2023-02-01T01:06:44;2.80;;;1.93;;
10416;SDS011;62605;49.432;8.680;2023-02-01T01:09:11;2.43;;;1.57;;
10416;SDS011;62605;49.432;8.680;2023-02-01T01:11:38;3.17;;;1.90;;
10416;SDS011;62605;49.432;8.680;2023-02-01T01:14:06;2.33;;;1.87;;
10416;SDS011;62605;49.432;8.680;2023-02-01T01:16:34;3.30;;;2.30;;
10416;SDS011;62605;49.432;8.680;2023-02-01T01:19:03;2.53;;;1.73;;
10416;SDS011;62605;49.432;8.680;2023-02-01T01:21:30;2.03;;;1.83;;
10416;SDS011;62605;49.432;8.680;2023-02-01T01:23:58;2.60;;;2.13;;
10416;SDS011;62605;49.432;8.680;2023-02-01T01:26:26;2.30;;;1.80;;
10416;SDS011;62605;49.432;8.680;2023-02-01T01:28:55;2.00;;;1.47;;
10416;SDS011;62605;49.432;8.680;2023-02-01T01:31:23;2.03;;;1.60;;
10416;SDS011;62605;49.432;8.680;2023-02-01T01:33:50;2.57;;;2.00;;
10416;SDS011;62605;49.432;8.680;2023-02-01T01:36:24;4.77;;;1.80;;
10416;SDS011;62605;49.432;8.680;2023-02-01T01:38:52;2.13;;;1.80;;
10416;SDS011;62605;49.432;8.680;2023-02-01T01:41:20;1.30;;;1.20;;
10416;SDS011;62605;49.432;8.680;2023-02-01T01:43:51;2.17;;;1.67;;
10416;SDS011;62605;49.432;8.680;2023-02-01T01:46:20;2.27;;;1.80;;
10416;SDS011;62605;49.432;8.680;2023-02-01T01:48:50;2.87;;;1.70;;
10416;SDS011;62605;49.432;8.680;2023-02-01T01:51:22;3.57;;;1.87;;
10416;SDS011;62605;49.432;8.680;2023-02-01T01:53:54;1.97;;;1.73;;
10416;SDS011;62605;49.432;8.680;2023-02-01T01:56:26;1.90;;;1.53;;
10416;SDS011;62605;49.432;8.680;2023-02-01T01:58:55;1.93;;;1.50;;
10416;SDS011;62605;49.432;8.680;2023-02-01T02:01:22;2.70;;;1.90;;
10416;SDS011;62605;49.432;8.680;2023-02-01T02:03:49;2.33;;;1.53;;
10416;SDS011;62605;49.432;8.680;2023-02-01T02:06:20;1.90;;;1.60;;
10416;SDS011;62605;49.432;8.680;2023-02-01T02:08:59;2.43;;;1.60;;
10416;SDS011;62605;49.432;8.680;2023-02-01T02:11:26;2.53;;;1.90;;
10416;SDS011;62605;49.432;8.680;2023-02-01T02:13:53;4.10;;;2.00;;
10416;SDS011;62605;49.432;8.680;2023-02-01T02:16:35;2.30;;;1.60;;
10416;SDS011;62605;49.432;8.680;2023-02-01T02:19:18;4.80;;;2.00;;
10416;SDS011;62605;49.432;8.680;2023-02-01T02:25:23;2.00;;;1.40;;
10416;SDS011;62605;49.432;8.680;2023-02-01T02:28:00;3.20;;;1.80;;
10416;SDS011;62605;49.432;8.680;2023-02-01T02:30:45;4.00;;;1.80;;
10416;SDS011;62605;49.432;8.680;2023-02-01T02:36:23;3.60;;;1.80;;
10416;SDS011;62605;49.432;8.680;2023-02-01T02:39:02;2.00;;;1.80;;
10416;SDS011;62605;49.432;8.680;2023-02-01T02:41:34;4.20;;;1.83;;
10416;SDS011;62605;49.432;8.680;2023-02-01T02:44:30;1.77;;;1.67;;
10416;SDS011;62605;49.432;8.680;2023-02-01T02:47:21;4.40;;;1.87;;
10416;SDS011;62605;49.432;8.680;2023-02-01T02:49:55;2.97;;;2.10;;
10416;SDS011;62605;49.432;8.680;2023-02-01T02:52:51;6.47;;;1.90;;
10416;SDS011;62605;49.432;8.680;2023-02-01T02:55:41;1.83;;;1.60;;
10416;SDS011;62605;49.432;8.680;2023-02-01T02:58:09;2.20;;;1.87;;
10416;SDS011;62605;49.432;8.680;2023-02-01T03:00:56;2.70;;;2.13;;
10416;SDS011;62605;49.432;8.680;2023-02-01T03:03:40;3.57;;;2.50;;
10416;SDS011;62605;49.432;8.680;2023-02-01T03:06:35;3.20;;;2.20;;
10416;SDS011;62605;49.432;8.680;2023-02-01T03:09:05;3.77;;;1.90;;
10416;SDS011;62605;49.432;8.680;2023-02-01T03:11:36;2.70;;;2.07;;
10416;SDS011;62605;49.432;8.680;2023-02-01T03:14:22;2.93;;;2.03;;
10416;SDS011;62605;49.432;8.680;2023-02-01T03:16:56;2.57;;;1.80;;
10416;SDS011;62605;49.432;8.680;2023-02-01T03:19:27;3.33;;;1.97;;
10416;SDS011;62605;49.432;8.680;2023-02-01T03:22:01;3.93;;;2.40;;
10416;SDS011;62605;49.432;8.680;2023-02-01T03:24:31;2.00;;;1.80;;
10416;SDS011;62605;49.432;8.680;2023-02-01T03:27:05;4.87;;;1.83;;
10416;SDS011;62605;49.432;8.680;2023-02-01T03:29:37;3.00;;;2.30;;
10416;SDS011;62605;49.432;8.680;2023-02-01T03:32:06;3.07;;;2.07;;
10416;SDS011;62605;49.432;8.680;2023-02-01T03:34:34;2.67;;;2.00;;
10416;SDS011;62605;49.432;8.680;2023-02-01T03:37:03;4.97;;;2.17;;
10416;SDS011;62605;49.432;8.680;2023-02-01T03:39:34;2.20;;;1.87;;
10416;SDS011;62605;49.432;8.680;2023-02-01T03:42:06;3.50;;;2.23;;
10416;SDS011;62605;49.432;8.680;2023-02-01T03:44:37;4.03;;;2.13;;
10416;SDS011;62605;49.432;8.680;2023-02-01T03:47:08;2.27;;;1.80;;
10416;SDS011;62605;49.432;8.680;2023-02-01T03:49:40;2.60;;;2.10;;
10416;SDS011;62605;49.432;8.680;2023-02-01T03:52:11;3.40;;;1.83;;
10416;SDS011;62605;49.432;8.680;2023-02-01T03:54:42;3.23;;;2.23;;
10416;SDS011;62605;49.432;8.680;2023-02-01T03:57:11;2.20;;;2.00;;
10416;SDS011;62605;49.432;8.680;2023-02-01T03:59:40;3.47;;;1.80;;
10416;SDS011;62605;49.432;8.680;2023-02-01T04:02:08;7.20;;;2.70;;
10416;SDS011;62605;49.432;8.680;2023-02-01T04:04:35;4.57;;;2.60;;
10416;SDS011;62605;49.432;8.680;2023-02-01T04:07:02;3.97;;;2.20;;
10416;SDS011;62605;49.432;8.680;2023-02-01T04:09:31;2.80;;;2.40;;
10416;SDS011;62605;49.432;8.680;2023-02-01T04:11:58;4.50;;;2.70;;
10416;SDS011;62605;49.432;8.680;2023-02-01T04:14:25;2.37;;;1.93;;
10416;SDS011;62605;49.432;8.680;2023-02-01T04:16:52;2.90;;;2.40;;
10416;SDS011;62605;49.432;8.680;2023-02-01T04:19:19;3.03;;;2.13;;
10416;SDS011;62605;49.432;8.680;2023-02-01T04:21:46;2.90;;;2.10;;
10416;SDS011;62605;49.432;8.680;2023-02-01T04:24:13;5.70;;;2.30;;
10416;SDS011;62605;49.432;8.680;2023-02-01T04:26:42;2.47;;;2.07;;
10416;SDS011;62605;49.432;8.680;2023-02-01T04:29:09;3.40;;;2.23;;
10416;SDS011;62605;49.432;8.680;2023-02-01T04:31:36;2.73;;;2.07;;
10416;SDS011;62605;49.432;8.680;2023-02-01T04:34:03;3.97;;;2.30;;
10416;SDS011;62605;49.432;8.680;2023-02-01T04:36:30;6.37;;;2.73;;
10416;SDS011;62605;49.432;8.680;2023-02-01T04:38:57;3.57;;;2.17;;
10416;SDS011;62605;49.432;8.680;2023-02-01T04:41:24;4.60;;;2.70;;
10416;SDS011;62605;49.432;8.680;2023-02-01T04:43:52;2.47;;;2.13;;
10416;SDS011;62605;49.432;8.680;2023-02-01T04:46:19;4.23;;;2.20;;
10416;SDS011;62605;49.432;8.680;2023-02-01T04:48:47;6.17;;;2.47;;
10416;SDS011;62605;49.432;8.680;2023-02-01T04:51:14;2.40;;;2.07;;
10416;SDS011;62605;49.432;8.680;2023-02-01T04:53:41;4.03;;;2.37;;
10416;SDS011;62605;49.432;8.680;2023-02-01T04:56:08;3.13;;;2.17;;
10416;SDS011;62605;49.432;8.680;2023-02-01T04:58:35;6.50;;;2.27;;
10416;SDS011;62605;49.432;8.680;2023-02-01T05:01:04;3.43;;;2.63;;
10416;SDS011;62605;49.432;8.680;2023-02-01T05:03:32;3.90;;;2.13;;
10416;SDS011;62605;49.432;8.680;2023-02-01T05:06:00;6.13;;;2.10;;
10416;SDS011;62605;49.432;8.680;2023-02-01T05:08:29;3.03;;;1.93;;
10416;SDS011;62605;49.432;8.680;2023-02-01T05:10:56;3.23;;;2.47;;
10416;SDS011;62605;49.432;8.680;2023-02-01T05:13:24;2.70;;;1.93;;
10416;SDS011;62605;49.432;8.680;2023-02-01T05:16:09;2.90;;;2.07;;
10416;SDS011;62605;49.432;8.680;2023-02-01T05:18:36;4.60;;;2.50;;
10416;SDS011;62605;49.432;8.680;2023-02-01T05:21:03;4.40;;;2.30;;
10416;SDS011;62605;49.432;8.680;2023-02-01T05:23:30;2.80;;;2.27;;
10416;SDS011;62605;49.432;8.680;2023-02-01T05:26:17;2.97;;;2.40;;
10416;SDS011;62605;49.432;8.680;2023-02-01T05:28:44;3.57;;;1.93;;
10416;SDS011;62605;49.432;8.680;2023-02-01T05:31:13;1.80;;;1.60;;
10416;SDS011;62605;49.432;8.680;2023-02-01T05:33:39;3.20;;;2.57;;
10416;SDS011;62605;49.432;8.680;2023-02-01T05:36:06;3.10;;;1.90;;
10416;SDS011;62605;49.432;8.680;2023-02-01T05:38:34;2.70;;;1.77;;
10416;SDS011;62605;49.432;8.680;2023-02-01T05:41:00;5.57;;;2.37;;
10416;SDS011;62605;49.432;8.680;2023-02-01T05:43:27;3.40;;;2.43;;
10416;SDS011;62605;49.432;8.680;2023-02-01T05:45:54;3.77;;;2.70;;
10416;SDS011;62605;49.432;8.680;2023-02-01T05:48:23;3.03;;;1.50;;
10416;SDS011;62605;49.432;8.680;2023-02-01T05:50:49;6.07;;;1.70;;
10416;SDS011;62605;49.432;8.680;2023-02-01T05:53:16;2.33;;;1.77;;
10416;SDS011;62605;49.432;8.680;2023-02-01T05:55:43;2.00;;;1.60;;
10416;SDS011;62605;49.432;8.680;2023-02-01T05:58:11;3.80;;;2.03;;
10416;SDS011;62605;49.432;8.680;2023-02-01T06:00:39;2.13;;;1.93;;
10416;SDS011;62605;49.432;8.680;2023-02-01T06:03:06;4.23;;;2.23;;
10416;SDS011;62605;49.432;8.680;2023-02-01T06:05:35;8.40;;;2.10;;
10416;SDS011;62605;49.432;8.680;2023-02-01T06:08:03;4.83;;;2.37;;
10416;SDS011;62605;49.432;8.680;2023-02-01T06:10:32;3.27;;;2.00;;
10416;SDS011;62605;49.432;8.680;2023-02-01T06:12:59;1.67;;;1.57;;
10416;SDS011;62605;49.432;8.680;2023-02-01T06:15:28;3.97;;;2.00;;
10416;SDS011;62605;49.432;8.680;2023-02-01T06:17:55;3.20;;;1.90;;
10416;SDS011;62605;49.432;8.680;2023-02-01T06:20:22;3.37;;;2.07;;
10416;SDS011;62605;49.432;8.680;2023-02-01T06:22:51;3.30;;;2.13;;
10416;SDS011;62605;49.432;8.680;2023-02-01T06:25:18;3.17;;;2.17;;
10416;SDS011;62605;49.432;8.680;2023-02-01T06:27:46;3.80;;;2.40;;
10416;SDS011;62605;49.432;8.680;2023-02-01T06:30:13;2.67;;;2.17;;
10416;SDS011;62605;49.432;8.680;2023-02-01T06:32:40;3.43;;;2.00;;
10416;SDS011;62605;49.432;8.680;2023-02-01T06:35:09;4.47;;;2.20;;
10416;SDS011;62605;49.432;8.680;2023-02-01T06:37:41;4.83;;;2.40;;
10416;SDS011;62605;49.432;8.680;2023-02-01T06:40:10;1.90;;;1.73;;
10416;SDS011;62605;49.432;8.680;2023-02-01T06:42:38;2.80;;;1.90;;
10416;SDS011;62605;49.432;8.680;2023-02-01T06:45:05;4.63;;;2.63;;
10416;SDS011;62605;49.432;8.680;2023-02-01T06:47:33;4.33;;;2.43;;
10416;SDS011;62605;49.432;8.680;2023-02-01T06:50:00;7.77;;;2.23;;
10416;SDS011;62605;49.432;8.680;2023-02-01T06:52:28;2.37;;;2.13;;
10416;SDS011;62605;49.432;8.680;2023-02-01T06:54:55;2.40;;;2.20;;
10416;SDS011;62605;49.432;8.680;2023-02-01T06:57:23;2.37;;;2.07;;
10416;SDS011;62605;49.432;8.680;2023-02-01T06:59:55;2.97;;;2.13;;
10416;SDS011;62605;49.432;8.680;2023-02-01T07:02:23;2.67;;;2.30;;
10416;SDS011;62605;49.432;8.680;2023-02-01T07:04:50;3.17;;;2.40;;
10416;SDS011;62605;49.432;8.680;2023-02-01T07:07:17;2.77;;;2.07;;
10416;SDS011;62605;49.432;8.680;2023-02-01T07:09:47;3.53;;;2.40;;
10416;SDS011;62605;49.432;8.680;2023-02-01T07:12:14;5.03;;;2.67;;
10416;SDS011;62605;49.432;8.680;2023-02-01T07:14:44;7.83;;;2.93;;
10416;SDS011;62605;49.432;8.680;2023-02-01T07:17:12;2.77;;;2.20;;
10416;SDS011;62605;49.432;8.680;2023-02-01T07:19:38;5.17;;;2.47;;
10416;SDS011;62605;49.432;8.680;2023-02-01T07:22:05;3.67;;;2.30;;
10416;SDS011;62605;49.432;8.680;2023-02-01T07:24:33;4.37;;;2.50;;
10416;SDS011;62605;49.432;8.680;2023-02-01T07:27:00;5.83;;;2.40;;
10416;SDS011;62605;49.432;8.680;2023-02-01T07:29:27;3.33;;;2.60;;
10416;SDS011;62605;49.432;8.680;2023-02-01T07:31:55;5.37;;;2.40;;
10416;SDS011;62605;49.432;8.680;2023-02-01T07:34:23;2.20;;;1.73;;
10416;SDS011;62605;49.432;8.680;2023-02-01T07:36:50;2.50;;;2.30;;
10416;SDS011;62605;49.432;8.680;2023-02-01T07:39:17;6.60;;;2.93;;
10416;SDS011;62605;49.432;8.680;2023-02-01T07:41:44;4.67;;;2.50;;
10416;SDS011;62605;49.432;8.680;2023-02-01T07:44:12;4.30;;;2.30;;
10416;SDS011;62605;49.432;8.680;2023-02-01T07:46:39;4.03;;;2.30;;
10416;SDS011;62605;49.432;8.680;2023-02-01T07:49:09;3.10;;;1.97;;
10416;SDS011;62605;49.432;8.680;2023-02-01T07:51:38;6.60;;;2.50;;
10416;SDS011;62605;49.432;8.680;2023-02-01T07:54:05;4.17;;;2.20;;
10416;SDS011;62605;49.432;8.680;2023-02-01T07:56:32;5.50;;;2.17;;
10416;SDS011;62605;49.432;8.680;2023-02-01T07:58:59;3.63;;;1.87;;
10416;SDS011;62605;49.432;8.680;2023-02-01T08:01:27;2.63;;;1.57;;
10416;SDS011;62605;49.432;8.680;2023-02-01T08:03:54;2.97;;;1.67;;
10416;SDS011;62605;49.432;8.680;2023-02-01T08:06:25;6.67;;;2.33;;
10416;SDS011;62605;49.432;8.680;2023-02-01T08:08:54;2.17;;;1.63;;
10416;SDS011;62605;49.432;8.680;2023-02-01T08:11:22;2.63;;;1.80;;
10416;SDS011;62605;49.432;8.680;2023-02-01T08:13:50;4.00;;;2.10;;
10416;SDS011;62605;49.432;8.680;2023-02-01T08:16:18;4.37;;;1.77;;
10416;SDS011;62605;49.432;8.680;2023-02-01T08:18:46;8.10;;;2.23;;
10416;SDS011;62605;49.432;8.680;2023-02-01T08:21:14;5.27;;;2.30;;
10416;SDS011;62605;49.432;8.680;2023-02-01T08:23:44;4.97;;;2.23;;
10416;SDS011;62605;49.432;8.680;2023-02-01T08:26:12;6.23;;;2.20;;
10416;SDS011;62605;49.432;8.680;2023-02-01T08:28:40;1.87;;;1.63;;
10416;SDS011;62605;49.432;8.680;2023-02-01T08:31:09;5.60;;;2.07;;
10416;SDS011;62605;49.432;8.680;2023-02-01T08:33:39;2.77;;;1.67;;
10416;SDS011;62605;49.432;8.680;2023-02-01T08:36:08;2.53;;;1.80;;
10416;SDS011;62605;49.432;8.680;2023-02-01T08:38:36;2.97;;;1.97;;
10416;SDS011;62605;49.432;8.680;2023-02-01T08:41:06;5.13;;;2.00;;
10416;SDS011;62605;49.432;8.680;2023-02-01T08:43:35;6.07;;;2.37;;
10416;SDS011;62605;49.432;8.680;2023-02-01T08:46:02;3.63;;;2.43;;
10416;SDS011;62605;49.432;8.680;2023-02-01T08:48:30;3.97;;;1.97;;
10416;SDS011;62605;49.432;8.680;2023-02-01T08:50:57;2.90;;;1.90;;
10416;SDS011;62605;49.432;8.680;2023-02-01T08:53:26;2.30;;;2.10;;
10416;SDS011;62605;49.432;8.680;2023-02-01T08:55:53;5.37;;;2.07;;
10416;SDS011;62605;49.432;8.680;2023-02-01T08:58:22;4.77;;;2.23;;
10416;SDS011;62605;49.432;8.680;2023-02-01T09:00:48;6.27;;;2.20;;
10416;SDS011;62605;49.432;8.680;2023-02-01T09:03:16;7.20;;;2.37;;
10416;SDS011;62605;49.432;8.680;2023-02-01T09:05:43;4.17;;;2.47;;
10416;SDS011;62605;49.432;8.680;2023-02-01T09:08:10;5.73;;;3.10;;
10416;SDS011;62605;49.432;8.680;2023-02-01T09:10:40;4.53;;;2.97;;
10416;SDS011;62605;49.432;8.680;2023-02-01T09:13:07;3.03;;;2.03;;
10416;SDS011;62605;49.432;8.680;2023-02-01T09:15:36;3.40;;;2.50;;
10416;SDS011;62605;49.432;8.680;2023-02-01T09:18:03;5.10;;;2.70;;
10416;SDS011;62605;49.432;8.680;2023-02-01T09:20:30;4.20;;;1.97;;
10416;SDS011;62605;49.432;8.680;2023-02-01T09:22:57;7.23;;;2.63;;
10416;SDS011;62605;49.432;8.680;2023-02-01T09:25:25;6.70;;;2.90;;
10416;SDS011;62605;49.432;8.680;2023-02-01T09:27:52;9.87;;;2.23;;
10416;SDS011;62605;49.432;8.680;2023-02-01T09:30:19;6.77;;;2.40;;
10416;SDS011;62605;49.432;8.680;2023-02-01T09:32:47;8.40;;;1.90;;
10416;SDS011;62605;49.432;8.680;2023-02-01T09:35:14;3.33;;;2.10;;
10416;SDS011;62605;49.432;8.680;2023-02-01T09:37:41;3.67;;;2.17;;
10416;SDS011;62605;49.432;8.680;2023-02-01T09:40:10;9.70;;;1.73;;
10416;SDS011;62605;49.432;8.680;2023-02-01T09:42:46;3.40;;;1.93;;
10416;SDS011;62605;49.432;8.680;2023-02-01T09:45:24;4.50;;;2.13;;
10416;SDS011;62605;49.432;8.680;2023-02-01T09:47:59;2.20;;;1.73;;
10416;SDS011;62605;49.432;8.680;2023-02-01T09:50:31;1.77;;;1.60;;
10416;SDS011;62605;49.432;8.680;2023-02-01T09:53:03;6.43;;;2.07;;
10416;SDS011;62605;49.432;8.680;2023-02-01T09:55:35;5.87;;;2.00;;
10416;SDS011;62605;49.432;8.680;2023-02-01T09:58:06;2.03;;;1.83;;
10416;SDS011;62605;49.432;8.680;2023-02-01T10:00:38;5.00;;;2.30;;
10416;SDS011;62605;49.432;8.680;2023-02-01T10:03:11;4.43;;;2.50;;
10416;SDS011;62605;49.432;8.680;2023-02-01T10:05:43;7.87;;;2.30;;
10416;SDS011;62605;49.432;8.680;2023-02-01T10:08:25;7.33;;;2.20;;
10416;SDS011;62605;49.432;8.680;2023-02-01T10:11:05;7.37;;;2.10;;
10416;SDS011;62605;49.432;8.680;2023-02-01T10:13:45;3.57;;;1.70;;
10416;SDS011;62605;49.432;8.680;2023-02-01T10:16:22;9.40;;;1.70;;
10416;SDS011;62605;49.432;8.680;2023-02-01T10:19:14;5.20;;;1.87;;
10416;SDS011;62605;49.432;8.680;2023-02-01T10:21:58;8.13;;;2.87;;
10416;SDS011;62605;49.432;8.680;2023-02-01T10:24:36;9.93;;;2.50;;
10416;SDS011;62605;49.432;8.680;2023-02-01T10:27:10;4.37;;;1.70;;
10416;SDS011;62605;49.432;8.680;2023-02-01T10:29:40;5.83;;;1.50;;
10416;SDS011;62605;49.432;8.680;2023-02-01T10:32:12;3.00;;;1.60;;
10416;SDS011;62605;49.432;8.680;2023-02-01T10:34:42;3.07;;;1.77;;
10416;SDS011;62605;49.432;8.680;2023-02-01T10:37:15;9.00;;;1.43;;
10416;SDS011;62605;49.432;8.680;2023-02-01T10:39:49;2.23;;;1.60;;
10416;SDS011;62605;49.432;8.680;2023-02-01T10:42:21;3.17;;;1.43;;
10416;SDS011;62605;49.432;8.680;2023-02-01T10:44:52;1.63;;;1.30;;
10416;SDS011;62605;49.432;8.680;2023-02-01T10:47:22;4.73;;;2.20;;
10416;SDS011;62605;49.432;8.680;2023-02-01T10:49:52;5.17;;;1.60;;
10416;SDS011;62605;49.432;8.680;2023-02-01T10:52:26;3.47;;;1.67;;
10416;SDS011;62605;49.432;8.680;2023-02-01T10:57:59;4.60;;;1.50;;
10416;SDS011;62605;49.432;8.680;2023-02-01T11:00:27;1.23;;;0.90;;
10416;SDS011;62605;49.432;8.680;2023-02-01T11:03:00;4.47;;;1.33;;
10416;SDS011;62605;49.432;8.680;2023-02-01T11:05:46;3.27;;;1.47;;
10416;SDS011;62605;49.432;8.680;2023-02-01T11:08:14;1.30;;;1.20;;
10416;SDS011;62605;49.432;8.680;2023-02-01T11:10:44;2.37;;;1.10;;
10416;SDS011;62605;49.432;8.680;2023-02-01T11:13:12;3.73;;;1.40;;
10416;SDS011;62605;49.432;8.680;2023-02-01T11:15:45;5.03;;;2.20;;
10416;SDS011;62605;49.432;8.680;2023-02-01T11:18:17;4.53;;;1.40;;
10416;SDS011;62605;49.432;8.680;2023-02-01T11:20:47;4.60;;;1.60;;
10416;SDS011;62605;49.432;8.680;2023-02-01T11:23:17;2.70;;;1.43;;
10416;SDS011;62605;49.432;8.680;2023-02-01T11:25:49;5.63;;;1.60;;
10416;SDS011;62605;49.432;8.680;2023-02-01T11:28:18;5.30;;;1.37;;
10416;SDS011;62605;49.432;8.680;2023-02-01T11:30:47;10.97;;;2.10;;
10416;SDS011;62605;49.432;8.680;2023-02-01T11:33:15;3.20;;;1.20;;
10416;SDS011;62605;49.432;8.680;2023-02-01T11:35:45;3.83;;;1.20;;
10416;SDS011;62605;49.432;8.680;2023-02-01T11:38:20;5.63;;;1.77;;
10416;SDS011;62605;49.432;8.680;2023-02-01T11:40:51;4.93;;;1.50;;
10416;SDS011;62605;49.432;8.680;2023-02-01T11:43:21;2.40;;;0.87;;
10416;SDS011;62605;49.432;8.680;2023-02-01T11:45:53;2.63;;;1.00;;
10416;SDS011;62605;49.432;8.680;2023-02-01T11:48:22;6.23;;;0.93;;
10416;SDS011;62605;49.432;8.680;2023-02-01T11:50:54;5.67;;;1.30;;
10416;SDS011;62605;49.432;8.680;2023-02-01T11:53:33;4.60;;;1.77;;
10416;SDS011;62605;49.432;8.680;2023-02-01T11:56:12;6.27;;;1.57;;
10416;SDS011;62605;49.432;8.680;2023-02-01T11:59:05;6.70;;;1.53;;
10416;SDS011;62605;49.432;8.680;2023-02-01T12:01:45;6.17;;;1.27;;
10416;SDS011;62605;49.432;8.680;2023-02-01T12:07:35;3.37;;;1.43;;
10416;SDS011;62605;49.432;8.680;2023-02-01T12:10:16;6.00;;;1.63;;
10416;SDS011;62605;49.432;8.680;2023-02-01T12:12:52;3.83;;;1.47;;
10416;SDS011;62605;49.432;8.680;2023-02-01T12:15:32;6.63;;;1.87;;
10416;SDS011;62605;49.432;8.680;2023-02-01T12:18:17;3.03;;;1.30;;
10416;SDS011;62605;49.432;8.680;2023-02-01T12:21:04;6.60;;;1.70;;
10416;SDS011;62605;49.432;8.680;2023-02-01T12:23:50;6.63;;;1.67;;
10416;SDS011;62605;49.432;8.680;2023-02-01T12:26:44;5.63;;;1.80;;
10416;SDS011;62605;49.432;8.680;2023-02-01T12:29:25;2.83;;;1.10;;
10416;SDS011;62605;49.432;8.680;2023-02-01T12:32:11;4.60;;;1.93;;
10416;SDS011;62605;49.432;8.680;2023-02-01T12:34:56;8.67;;;1.80;;
10416;SDS011;62605;49.432;8.680;2023-02-01T12:38:02;3.03;;;1.30;;
10416;SDS011;62605;49.432;8.680;2023-02-01T12:40:51;3.53;;;1.07;;
10416;SDS011;62605;49.432;8.680;2023-02-01T12:43:34;6.00;;;1.20;;
10416;SDS011;62605;49.432;8.680;2023-02-01T12:46:07;4.60;;;0.80;;
10416;SDS011;62605;49.432;8.680;2023-02-01T12:48:40;5.30;;;1.37;;
10416;SDS011;62605;49.432;8.680;2023-02-01T12:51:17;3.30;;;1.33;;
10416;SDS011;62605;49.432;8.680;2023-02-01T12:53:47;2.63;;;1.30;;
10416;SDS011;62605;49.432;8.680;2023-02-01T12:56:21;8.17;;;1.27;;
10416;SDS011;62605;49.432;8.680;2023-02-01T12:58:52;1.97;;;1.20;;
10416;SDS011;62605;49.432;8.680;2023-02-01T13:01:26;6.67;;;1.60;;
10416;SDS011;62605;49.432;8.680;2023-02-01T13:04:01;4.83;;;1.80;;
10416;SDS011;62605;49.432;8.680;2023-02-01T13:06:35;8.03;;;1.23;;
10416;SDS011;62605;49.432;8.680;2023-02-01T13:09:09;4.63;;;1.40;;
10416;SDS011;62605;49.432;8.680;2023-02-01T13:11:45;3.57;;;1.27;;
10416;SDS011;62605;49.432;8.680;2023-02-01T13:17:23;14.63;;;2.90;;
10416;SDS011;62605;49.432;8.680;2023-02-01T13:19:53;8.87;;;2.40;;
10416;SDS011;62605;49.432;8.680;2023-02-01T13:22:25;3.80;;;1.50;;
10416;SDS011;62605;49.432;8.680;2023-02-01T13:24:56;4.93;;;1.40;;
10416;SDS011;62605;49.432;8.680;2023-02-01T13:27:28;3.93;;;1.23;;
10416;SDS011;62605;49.432;8.680;2023-02-01T13:29:58;3.93;;;1.60;;
10416;SDS011;62605;49.432;8.680;2023-02-01T13:32:35;2.73;;;1.17;;
10416;SDS011;62605;49.432;8.680;2023-02-01T13:35:24;10.10;;;1.37;;
10416;SDS011;62605;49.432;8.680;2023-02-01T13:41:25;6.77;;;1.90;;
10416;SDS011;62605;49.432;8.680;2023-02-01T13:43:58;9.67;;;2.00;;
10416;SDS011;62605;49.432;8.680;2023-02-01T13:46:27;5.17;;;1.30;;
10416;SDS011;62605;49.432;8.680;2023-02-01T13:48:57;5.27;;;2.00;;
10416;SDS011;62605;49.432;8.680;2023-02-01T13:51:37;2.10;;;1.30;;
10416;SDS011;62605;49.432;8.680;2023-02-01T13:54:21;3.83;;;1.33;;
10416;SDS011;62605;49.432;8.680;2023-02-01T13:56:52;2.73;;;1.27;;
10416;SDS011;62605;49.432;8.680;2023-02-01T14:08:39;1.50;;;1.20;;
10416;SDS011;62605;49.432;8.680;2023-02-01T14:11:32;4.17;;;1.57;;
10416;SDS011;62605;49.432;8.680;2023-02-01T14:23:21;3.50;;;1.50;;
10416;SDS011;62605;49.432;8.680;2023-02-01T14:26:07;6.10;;;1.40;;
10416;SDS011;62605;49.432;8.680;2023-02-01T14:28:44;7.37;;;1.50;;
10416;SDS011;62605;49.432;8.680;2023-02-01T14:31:16;4.27;;;1.40;;
10416;SDS011;62605;49.432;8.680;2023-02-01T14:33:59;6.00;;;1.73;;
10416;SDS011;62605;49.432;8.680;2023-02-01T14:36:38;6.77;;;1.50;;
10416;SDS011;62605;49.432;8.680;2023-02-01T14:39:20;3.10;;;1.23;;
10416;SDS011;62605;49.432;8.680;2023-02-01T14:41:56;7.53;;;1.57;;
10416;SDS011;62605;49.432;8.680;2023-02-01T14:44:27;3.40;;;1.20;;
10416;SDS011;62605;49.432;8.680;2023-02-01T14:47:03;4.03;;;1.37;;
10416;SDS011;62605;49.432;8.680;2023-02-01T14:49:37;5.37;;;1.30;;
10416;SDS011;62605;49.432;8.680;2023-02-01T14:52:12;4.87;;;0.93;;
10416;SDS011;62605;49.432;8.680;2023-02-01T14:54:42;5.13;;;1.37;;
10416;SDS011;62605;49.432;8.680;2023-02-01T14:57:14;3.90;;;1.70;;
10416;SDS011;62605;49.432;8.680;2023-02-01T14:59:44;3.67;;;1.27;;
10416;SDS011;62605;49.432;8.680;2023-02-01T15:02:17;3.27;;;1.27;;
10416;SDS011;62605;49.432;8.680;2023-02-01T15:04:53;5.80;;;1.60;;
10416;SDS011;62605;49.432;8.680;2023-02-01T15:07:20;2.77;;;1.37;;
10416;SDS011;62605;49.432;8.680;2023-02-01T15:09:50;5.30;;;1.00;;
10416;SDS011;62605;49.432;8.680;2023-02-01T15:12:19;3.23;;;1.40;;
10416;SDS011;62605;49.432;8.680;2023-02-01T15:15:07;2.33;;;1.53;;
10416;SDS011;62605;49.432;8.680;2023-02-01T15:17:38;2.43;;;1.40;;
10416;SDS011;62605;49.432;8.680;2023-02-01T15:20:13;3.47;;;1.50;;
10416;SDS011;62605;49.432;8.680;2023-02-01T15:22:51;3.43;;;1.93;;
10416;SDS011;62605;49.432;8.680;2023-02-01T15:25:20;3.57;;;1.90;;
10416;SDS011;62605;49.432;8.680;2023-02-01T15:27:48;11.70;;;1.77;;
10416;SDS011;62605;49.432;8.680;2023-02-01T15:30:17;8.23;;;2.03;;
10416;SDS011;62605;49.432;8.680;2023-02-01T15:32:46;5.00;;;1.90;;
10416;SDS011;62605;49.432;8.680;2023-02-01T15:38:20;4.33;;;1.37;;
10416;SDS011;62605;49.432;8.680;2023-02-01T15:40:56;7.87;;;1.37;;
10416;SDS011;62605;49.432;8.680;2023-02-01T15:43:27;2.37;;;1.47;;
10416;SDS011;62605;49.432;8.680;2023-02-01T15:45:56;4.97;;;1.87;;
10416;SDS011;62605;49.432;8.680;2023-02-01T15:48:25;8.87;;;1.90;;
10416;SDS011;62605;49.432;8.680;2023-02-01T15:50:59;5.20;;;1.73;;
10416;SDS011;62605;49.432;8.680;2023-02-01T15:53:38;3.67;;;1.10;;